Time;durP1;ratioP1;P1;durP2;ratioP2;P2;SDS_P1;SDS_P2;PMS_P1;PMS_P2;Temp;Humidity;BMP_temperature;BMP_pressure;BME280_temperature;BME280_humidity;BME280_pressure;Samples;Min_cycle;Max_cycle;Signal;HPM_P1;HPM_P2
2024/01/29 00:01:48;;;;;;;3.13;2.10;;;;;;;0.63;100.00;146399.44;4975282;28;20228;-64
2024/01/29 00:04:14;;;;;;;4.33;1.90;;;;;;;0.85;100.00;146453.88;4970814;28;20573;-64
2024/01/29 00:06:41;;;;;;;7.43;2.10;;;;;;;0.85;100.00;146452.66;4978466;28;20237;-64
2024/01/29 00:09:07;;;;;;;3.43;1.93;;;;;;;0.83;100.00;146447.72;4974613;28;20233;-64
2024/01/29 00:11:35;;;;;;;5.30;2.00;;;;;;;0.83;100.00;146447.72;4972532;28;20233;-64
2024/01/29 00:14:02;;;;;;;3.07;2.00;;;;;;;1.01;100.00;146492.25;4974370;28;20235;-64
2024/01/29 00:16:29;;;;;;;5.27;2.33;;;;;;;0.95;100.00;146477.41;4971457;28;20234;-64
2024/01/29 00:18:56;;;;;;;4.17;2.20;;;;;;;0.98;100.00;146483.56;4975524;28;20307;-64
2024/01/29 00:21:22;;;;;;;2.47;2.07;;;;;;;0.90;100.00;146463.78;4972582;28;20229;-64
2024/01/29 00:23:49;;;;;;;3.20;2.17;;;;;;;0.85;100.00;146453.88;4976602;28;20581;-64
2024/01/29 00:26:16;;;;;;;4.40;2.53;;;;;;;0.79;100.00;146437.81;4970469;28;20232;-64
2024/01/29 00:28:44;;;;;;;2.90;2.20;;;;;;;0.76;100.00;146431.59;4975410;28;20686;-64
2024/01/29 00:31:10;;;;;;;3.93;2.47;;;;;;;0.88;100.00;146460.09;4974580;28;20302;-64
2024/01/29 00:33:37;;;;;;;3.50;2.17;;;;;;;0.85;100.00;146452.66;4970149;28;20239;-64
2024/01/29 00:36:04;;;;;;;3.70;2.33;;;;;;;0.74;100.00;146426.66;4976014;28;20244;-64
2024/01/29 00:38:31;;;;;;;3.17;2.10;;;;;;;0.74;100.00;146426.66;4973530;28;20229;-65
2024/01/29 00:40:58;;;;;;;4.00;2.30;;;;;;;0.65;100.00;146405.66;4975937;28;20233;-65
2024/01/29 00:43:25;;;;;;;3.53;2.50;;;;;;;0.50;100.00;146368.56;4971410;28;20563;-64
2024/01/29 00:45:53;;;;;;;5.23;3.10;;;;;;;0.46;100.00;146358.66;4975856;28;20236;-64
2024/01/29 00:48:20;;;;;;;9.07;4.67;;;;;;;0.33;100.00;146328.97;4972350;28;20232;-65
2024/01/29 00:50:47;;;;;;;8.80;4.73;;;;;;;0.19;100.00;146295.63;4974455;28;20240;-63
2024/01/29 00:53:14;;;;;;;7.37;4.20;;;;;;;0.12;100.00;146279.53;4965830;28;20232;-65
2024/01/29 00:55:42;;;;;;;7.53;3.70;;;;;;;0.05;100.00;146262.22;4982304;28;20700;-65
2024/01/29 00:58:09;;;;;;;6.77;3.17;;;;;;;0.04;100.00;146258.53;4974793;28;20230;-65
2024/01/29 01:00:35;;;;;;;5.00;3.30;;;;;;;-0.04;100.00;146240.00;4961189;28;20709;-65
2024/01/29 01:03:04;;;;;;;3.53;2.20;;;;;;;-0.07;100.00;146233.81;4974848;28;20225;-64
2024/01/29 01:05:30;;;;;;;5.83;2.90;;;;;;;-0.12;100.00;146221.44;4971197;28;20232;-65
2024/01/29 01:07:57;;;;;;;6.07;3.10;;;;;;;-0.14;100.00;146216.50;4975414;28;20595;-64
2024/01/29 01:10:24;;;;;;;4.17;2.47;;;;;;;-0.16;100.00;146212.81;4973587;28;20246;-65
2024/01/29 01:12:50;;;;;;;3.20;2.23;;;;;;;-0.07;100.00;146232.59;4976648;28;20240;-65
2024/01/29 01:15:17;;;;;;;4.47;2.60;;;;;;;-0.14;100.00;146215.28;4971700;28;20235;-65
2024/01/29 01:17:43;;;;;;;3.23;2.30;;;;;;;-0.18;100.00;146206.63;4976976;28;20239;-65
2024/01/29 01:20:12;;;;;;;4.63;2.67;;;;;;;-0.15;100.00;146214.03;4974764;28;20224;-65
2024/01/29 01:22:39;;;;;;;5.30;2.23;;;;;;;-0.16;100.00;146212.81;4969670;28;20230;-65
2024/01/29 01:25:07;;;;;;;4.47;2.30;;;;;;;-0.13;100.00;146218.97;4975978;28;20239;-64
2024/01/29 01:27:33;;;;;;;3.47;2.30;;;;;;;-0.17;100.00;146209.09;4972717;28;20224;-64
2024/01/29 01:30:00;;;;;;;5.00;2.27;;;;;;;-0.14;100.00;146215.28;4977661;28;20225;-64
2024/01/29 01:32:27;;;;;;;4.33;2.20;;;;;;;-0.04;100.00;146240.00;4972318;28;20229;-65
2024/01/29 01:34:53;;;;;;;4.10;2.20;;;;;;;0.06;100.00;146263.47;4974403;28;20227;-65
2024/01/29 01:37:21;;;;;;;4.70;2.13;;;;;;;0.16;100.00;146286.94;4975534;28;20218;-65
2024/01/29 01:39:52;;;;;;;5.27;1.90;;;;;;;0.16;100.00;146286.94;4977992;28;20232;-65
2024/01/29 01:42:19;;;;;;;2.37;2.10;;;;;;;0.16;100.00;146286.94;4974934;28;20229;-65
2024/01/29 01:44:47;;;;;;;3.40;2.07;;;;;;;0.17;100.00;146290.69;4974038;28;20229;-65
2024/01/29 01:47:14;;;;;;;7.57;2.37;;;;;;;0.31;100.00;146324.03;4975934;28;20640;-65
2024/01/29 01:49:41;;;;;;;3.93;2.17;;;;;;;0.40;100.00;146346.28;4975860;28;20240;-65
2024/01/29 01:52:08;;;;;;;4.40;1.80;;;;;;;0.44;100.00;146356.19;4969063;28;20233;-65
2024/01/29 01:54:37;;;;;;;4.90;2.10;;;;;;;0.44;100.00;146354.97;4973302;28;20241;-66
2024/01/29 01:57:05;;;;;;;2.90;2.10;;;;;;;0.42;100.00;146351.25;4978950;28;20700;-65
2024/01/29 01:59:36;;;;;;;4.03;1.97;;;;;;;0.43;100.00;146353.72;4958255;28;22824;-65
2024/01/29 02:02:02;;;;;;;3.07;1.87;;;;;;;0.40;100.00;146345.06;4975496;28;20255;-65
2024/01/29 02:04:29;;;;;;;3.77;2.10;;;;;;;0.39;100.00;146342.59;4976325;28;20233;-65
2024/01/29 02:06:56;;;;;;;3.87;2.20;;;;;;;0.38;100.00;146341.34;4974988;28;20226;-64
2024/01/29 02:09:23;;;;;;;2.93;1.83;;;;;;;0.44;100.00;146356.19;4974408;28;20225;-65
2024/01/29 02:11:51;;;;;;;4.97;2.30;;;;;;;0.53;100.00;146375.97;4976802;28;20299;-65
2024/01/29 02:14:18;;;;;;;3.20;1.70;;;;;;;0.57;100.00;146385.88;4975156;28;20229;-65
2024/01/29 02:16:45;;;;;;;3.43;2.20;;;;;;;0.53;100.00;146375.97;4979217;28;20299;-65
2024/01/29 02:19:15;;;;;;;5.43;2.00;;;;;;;0.51;100.00;146372.28;4977916;28;20733;-65
2024/01/29 02:21:42;;;;;;;3.07;1.90;;;;;;;0.54;100.00;146378.44;4974635;28;20229;-65
2024/01/29 02:24:10;;;;;;;2.67;2.10;;;;;;;0.52;100.00;146373.50;4975924;28;20241;-65
2024/01/29 02:26:37;;;;;;;3.07;1.87;;;;;;;0.71;100.00;146420.50;4972054;28;20244;-65
2024/01/29 02:29:04;;;;;;;3.47;1.80;;;;;;;0.61;100.00;146395.75;4977875;28;20233;-65
2024/01/29 02:31:30;;;;;;;3.73;2.23;;;;;;;0.57;100.00;146387.06;4972021;28;20289;-65
2024/01/29 02:33:57;;;;;;;3.70;2.00;;;;;;;0.46;100.00;146359.91;4979339;28;20581;-65
2024/01/29 02:36:23;;;;;;;4.43;2.13;;;;;;;0.35;100.00;146332.72;4976477;28;20235;-65
2024/01/29 02:38:50;;;;;;;3.77;1.60;;;;;;;0.24;100.00;146307.97;4976932;28;20241;-65
2024/01/29 02:41:18;;;;;;;3.97;2.10;;;;;;;0.21;100.00;146299.31;4974171;28;20220;-65
2024/01/29 02:43:45;;;;;;;2.73;1.87;;;;;;;0.08;100.00;146269.63;4975374;28;20236;-65
2024/01/29 02:46:11;;;;;;;4.50;2.10;;;;;;;0.01;100.00;146251.13;4976754;28;20229;-65
2024/01/29 02:48:38;;;;;;;3.30;2.20;;;;;;;-0.07;100.00;146232.59;4976831;28;20708;-65
2024/01/29 02:51:05;;;;;;;3.60;2.33;;;;;;;-0.07;100.00;146232.59;4976335;28;20803;-65
2024/01/29 02:53:32;;;;;;;3.73;2.00;;;;;;;-0.14;100.00;146215.28;4974863;28;20243;-65
2024/01/29 02:55:58;;;;;;;2.30;1.70;;;;;;;-0.09;100.00;146228.88;4975372;28;20240;-65
2024/01/29 02:58:26;;;;;;;2.43;1.87;;;;;;;-0.09;100.00;146227.66;4973638;28;20224;-65
2024/01/29 03:00:53;;;;;;;2.67;2.03;;;;;;;-0.11;100.00;146223.91;4976422;28;20247;-65
2024/01/29 03:03:19;;;;;;;3.00;2.03;;;;;;;-0.08;100.00;146231.34;4991232;28;20763;-64
2024/01/29 03:05:46;;;;;;;4.43;1.90;;;;;;;-0.04;100.00;146240.00;4978247;28;20576;-65
2024/01/29 03:08:12;;;;;;;3.20;1.93;;;;;;;0.03;100.00;146256.06;4972621;28;20222;-64
2024/01/29 03:10:39;;;;;;;4.37;1.90;;;;;;;0.08;100.00;146268.41;4976781;28;20321;-64
2024/01/29 03:13:06;;;;;;;5.13;2.03;;;;;;;0.23;100.00;146305.50;4972509;28;20227;-65
2024/01/29 03:15:34;;;;;;;3.13;2.10;;;;;;;0.12;100.00;146279.53;4975303;28;20240;-65
2024/01/29 03:18:00;;;;;;;3.23;1.87;;;;;;;0.26;100.00;146312.94;4978405;28;20221;-65
2024/01/29 03:20:27;;;;;;;3.33;1.80;;;;;;;0.23;100.00;146304.25;4975706;28;20229;-65
2024/01/29 03:22:53;;;;;;;3.17;2.20;;;;;;;0.28;100.00;146316.63;4978120;28;20233;-65
2024/01/29 03:25:20;;;;;;;4.27;2.10;;;;;;;0.39;100.00;146342.59;4972416;28;20232;-64
2024/01/29 03:27:47;;;;;;;4.20;2.00;;;;;;;0.44;100.00;146356.19;4975898;28;20965;-64
2024/01/29 03:30:13;;;;;;;3.30;2.10;;;;;;;0.64;100.00;146403.19;4974220;28;20228;-65
2024/01/29 03:32:41;;;;;;;3.33;1.83;;;;;;;0.57;100.00;146387.06;4976108;28;20771;-65
2024/01/29 03:35:09;;;;;;;3.13;2.10;;;;;;;0.55;100.00;146380.91;4975148;28;20230;-65
2024/01/29 03:37:36;;;;;;;3.10;1.73;;;;;;;0.58;100.00;146389.56;4970938;28;20237;-65
2024/01/29 03:40:04;;;;;;;4.70;2.07;;;;;;;0.61;100.00;146394.50;4972057;28;20239;-65
2024/01/29 03:42:30;;;;;;;3.30;1.93;;;;;;;0.53;100.00;146375.97;4974970;28;20236;-65
2024/01/29 03:44:57;;;;;;;3.43;2.00;;;;;;;0.46;100.00;146359.91;4975398;28;20236;-65
2024/01/29 03:47:23;;;;;;;2.97;2.00;;;;;;;0.47;100.00;146361.13;4972155;28;20225;-65
2024/01/29 03:49:51;;;;;;;4.53;2.40;;;;;;;0.32;100.00;146325.28;4974524;28;20245;-65
2024/01/29 03:52:18;;;;;;;5.27;2.37;;;;;;;0.24;100.00;146306.72;4965160;28;20229;-65
2024/01/29 03:54:45;;;;;;;2.93;2.17;;;;;;;0.15;100.00;146285.72;4976581;28;20232;-65
2024/01/29 03:57:11;;;;;;;5.57;2.30;;;;;;;0.12;100.00;146279.53;4976740;28;20230;-65
2024/01/29 03:59:38;;;;;;;3.17;1.70;;;;;;;0.08;100.00;146269.63;4975916;28;20236;-65
2024/01/29 04:04:48;;;;;;;3.30;1.90;;;;;;;-0.05;100.00;146237.53;5263329;23;20677;-65
2024/01/29 04:07:16;;;;;;;3.07;2.07;;;;;;;0.07;100.00;146265.94;4989331;28;20303;-65
2024/01/29 04:09:42;;;;;;;4.57;2.00;;;;;;;-0.04;100.00;146241.22;4991614;28;20221;-64
2024/01/29 04:12:10;;;;;;;5.13;1.93;;;;;;;0.09;100.00;146270.88;4993419;28;20223;-65
2024/01/29 04:14:37;;;;;;;2.90;2.10;;;;;;;0.05;100.00;146262.22;4991401;28;20285;-65
2024/01/29 04:17:06;;;;;;;2.57;1.70;;;;;;;0.03;100.00;146256.06;4994631;28;20234;-65
2024/01/29 04:19:33;;;;;;;3.93;2.00;;;;;;;-0.01;100.00;146247.44;4992740;28;20315;-65
2024/01/29 04:21:59;;;;;;;3.10;1.90;;;;;;;0.01;100.00;146251.13;4995413;28;21286;-65
2024/01/29 04:24:28;;;;;;;4.03;1.70;;;;;;;0.10;100.00;146274.56;4992632;28;20226;-65
2024/01/29 04:26:55;;;;;;;8.20;2.10;;;;;;;0.01;100.00;146252.31;4996679;28;20242;-65
2024/01/29 04:29:21;;;;;;;4.10;2.33;;;;;;;-0.02;100.00;146246.16;4995499;28;20219;-65
2024/01/29 04:31:48;;;;;;;2.43;1.90;;;;;;;0.06;100.00;146264.69;5180520;23;20238;-66
2024/01/29 04:34:14;;;;;;;2.50;1.77;;;;;;;-0.06;100.00;146235.06;4971134;28;20312;-66
2024/01/29 04:36:41;;;;;;;3.40;2.07;;;;;;;-0.02;100.00;146246.16;4977369;28;20307;-65
2024/01/29 04:39:08;;;;;;;7.23;1.90;;;;;;;-0.02;100.00;146244.94;4978702;28;20258;-65
2024/01/29 04:41:36;;;;;;;5.70;2.10;;;;;;;-0.03;100.00;146243.69;4973460;28;20359;-65
2024/01/29 04:44:03;;;;;;;3.33;2.10;;;;;;;-0.02;100.00;146246.16;4977349;28;20719;-66
2024/01/29 04:46:30;;;;;;;2.47;1.73;;;;;;;-0.05;100.00;146237.53;4975951;28;20251;-65
2024/01/29 04:48:57;;;;;;;2.87;1.73;;;;;;;-0.12;100.00;146220.22;4976006;28;20224;-65
2024/01/29 04:51:24;;;;;;;3.50;2.00;;;;;;;-0.18;100.00;146206.63;4976394;28;20225;-65
2024/01/29 04:53:50;;;;;;;3.57;1.83;;;;;;;-0.21;100.00;146200.44;4978637;28;20751;-65
2024/01/29 04:56:17;;;;;;;3.17;2.10;;;;;;;-0.20;100.00;146201.66;4974562;28;20253;-65
2024/01/29 04:58:45;;;;;;;4.70;1.87;;;;;;;-0.12;100.00;146221.44;4977948;28;20236;-65
2024/01/29 05:01:12;;;;;;;4.17;2.30;;;;;;;-0.10;100.00;146225.19;4974283;28;20287;-65
2024/01/29 05:03:39;;;;;;;4.63;2.30;;;;;;;-0.10;100.00;146225.19;4976465;28;20675;-65
2024/01/29 05:06:06;;;;;;;3.13;1.80;;;;;;;-0.10;100.00;146225.19;4978364;28;20216;-65
2024/01/29 05:08:32;;;;;;;5.73;2.30;;;;;;;-0.08;100.00;146231.34;4973470;28;20233;-65
2024/01/29 05:10:59;;;;;;;3.30;2.07;;;;;;;0.01;100.00;146251.13;4978705;28;20268;-65
2024/01/29 05:13:28;;;;;;;4.00;2.10;;;;;;;-0.05;100.00;146237.53;4975927;28;20248;-65
2024/01/29 05:15:56;;;;;;;3.93;2.40;;;;;;;-0.08;100.00;146230.13;4976689;28;20240;-65
2024/01/29 05:18:22;;;;;;;4.03;2.60;;;;;;;-0.10;100.00;146225.19;4973847;28;20243;-65
2024/01/29 05:20:49;;;;;;;4.23;2.77;;;;;;;-0.04;100.00;146240.00;4975687;28;20827;-65
2024/01/29 05:23:15;;;;;;;4.53;2.50;;;;;;;-0.09;100.00;146227.66;4975921;28;20227;-65
2024/01/29 05:25:42;;;;;;;3.53;2.40;;;;;;;-0.11;100.00;146223.91;4980322;28;20239;-65
2024/01/29 05:28:09;;;;;;;4.77;2.90;;;;;;;-0.09;100.00;146228.88;4980278;28;20684;-65
2024/01/29 05:30:35;;;;;;;4.73;2.93;;;;;;;-0.16;100.00;146212.81;4975650;28;20228;-65
2024/01/29 05:33:04;;;;;;;5.27;2.70;;;;;;;-0.14;100.00;146215.28;4979518;28;20217;-65
2024/01/29 05:35:30;;;;;;;12.93;6.87;;;;;;;-0.18;100.00;146206.63;4976385;28;20219;-65
2024/01/29 05:37:57;;;;;;;5.70;3.47;;;;;;;-0.10;100.00;146226.38;4982680;28;20912;-65
2024/01/29 05:40:23;;;;;;;5.03;2.87;;;;;;;-0.13;100.00;146218.97;4979799;28;20225;-65
2024/01/29 05:42:53;;;;;;;4.27;3.03;;;;;;;-0.12;100.00;146220.22;4996071;28;20243;-65
2024/01/29 05:45:20;;;;;;;4.60;2.40;;;;;;;-0.17;100.00;146210.34;4979467;28;20324;-65
2024/01/29 05:47:46;;;;;;;4.73;2.67;;;;;;;-0.08;100.00;146230.13;4980868;28;20229;-65
2024/01/29 05:50:15;;;;;;;3.90;2.60;;;;;;;-0.03;100.00;146242.47;4978431;28;20719;-65
2024/01/29 05:52:42;;;;;;;4.93;3.00;;;;;;;-0.03;100.00;146242.47;4982769;28;20241;-65
2024/01/29 05:55:09;;;;;;;4.93;3.10;;;;;;;-0.06;100.00;146236.28;4974989;28;20801;-65
2024/01/29 05:57:36;;;;;;;7.10;3.90;;;;;;;-0.01;100.00;146248.63;4975285;28;20440;-65
2024/01/29 06:00:06;;;;;;;5.90;3.63;;;;;;;0.06;100.00;146263.47;4978417;28;20308;-65
2024/01/29 06:02:42;;;;;;;4.60;3.20;;;;;;;0.02;100.00;146254.81;4975160;28;20564;-65
2024/01/29 06:05:10;;;;;;;5.67;3.77;;;;;;;-0.01;100.00;146248.63;4978337;28;20225;-65
2024/01/29 06:07:38;;;;;;;4.97;2.60;;;;;;;0.10;100.00;146273.38;4977959;28;20239;-65
2024/01/29 06:10:05;;;;;;;4.77;2.80;;;;;;;0.18;100.00;146293.16;4978170;28;20247;-65
2024/01/29 06:12:32;;;;;;;5.27;3.00;;;;;;;0.12;100.00;146279.53;4978975;28;20231;-65
2024/01/29 06:14:58;;;;;;;10.03;5.67;;;;;;;0.10;100.00;146273.38;4981339;28;20599;-66
2024/01/29 06:17:25;;;;;;;28.37;13.63;;;;;;;0.11;100.00;146275.84;4977662;28;20224;-66
2024/01/29 06:19:52;;;;;;;177.70;51.53;;;;;;;0.02;100.00;146254.81;4979929;28;20718;-66
2024/01/29 06:22:18;;;;;;;39.27;15.37;;;;;;;0.07;100.00;146265.94;4976575;28;20233;-66
2024/01/29 06:24:46;;;;;;;8.27;4.13;;;;;;;0.08;100.00;146269.63;4977799;28;20588;-65
2024/01/29 06:27:13;;;;;;;6.65;3.63;;;;;;;0.01;100.00;146252.31;4976077;28;20449;-65
2024/01/29 06:29:39;;;;;;;7.20;3.80;;;;;;;0.09;100.00;146270.88;4978259;28;20232;-65
2024/01/29 06:32:06;;;;;;;4.73;2.40;;;;;;;0.07;100.00;146267.16;4980964;28;20234;-65
2024/01/29 06:34:34;;;;;;;4.60;3.40;;;;;;;0.06;100.00;146264.69;4976041;28;20612;-65
2024/01/29 06:37:00;;;;;;;3.60;2.63;;;;;;;0.20;100.00;146296.84;4979699;28;20758;-65
2024/01/29 06:39:27;;;;;;;3.80;2.17;;;;;;;0.19;100.00;146294.34;4977356;28;20713;-65
2024/01/29 06:41:55;;;;;;;6.73;2.20;;;;;;;0.10;100.00;146274.56;4977254;28;20232;-65
2024/01/29 06:44:22;;;;;;;5.30;2.67;;;;;;;0.07;100.00;146265.94;4975882;28;20491;-65
2024/01/29 06:46:48;;;;;;;3.37;2.20;;;;;;;0.14;100.00;146283.25;4981805;28;20278;-65
2024/01/29 06:49:26;;;;;;;3.77;2.20;;;;;;;0.21;100.00;146299.31;4977360;28;20230;-65
2024/01/29 06:51:52;;;;;;;2.80;2.17;;;;;;;0.19;100.00;146294.34;4993685;28;20244;-65
2024/01/29 06:54:19;;;;;;;4.33;3.30;;;;;;;0.20;100.00;146296.84;4975662;28;20233;-65
2024/01/29 06:56:46;;;;;;;3.93;2.30;;;;;;;0.28;100.00;146316.63;4980978;28;20251;-65
2024/01/29 06:59:14;;;;;;;3.80;2.30;;;;;;;0.32;100.00;146326.50;4975835;28;20235;-65
2024/01/29 07:01:40;;;;;;;5.30;2.42;;;;;;;0.34;100.00;146330.25;4978771;28;20449;-65
2024/01/29 07:04:07;;;;;;;7.30;3.30;;;;;;;0.52;100.00;146373.50;4984490;28;20232;-65
2024/01/29 07:06:34;;;;;;;5.70;3.33;;;;;;;0.51;100.00;146372.28;4978139;28;20224;-65
2024/01/29 07:09:00;;;;;;;6.03;2.33;;;;;;;0.47;100.00;146362.38;4980709;28;20237;-66
2024/01/29 07:11:27;;;;;;;6.17;2.20;;;;;;;0.53;100.00;146375.97;4974917;28;21092;-66
2024/01/29 07:13:54;;;;;;;6.80;2.57;;;;;;;0.51;100.00;146371.03;4978869;28;20241;-66
2024/01/29 07:16:22;;;;;;;3.20;2.47;;;;;;;0.49;100.00;146367.34;4978083;28;20228;-66
2024/01/29 07:18:49;;;;;;;4.90;2.13;;;;;;;0.56;100.00;146383.38;4980204;28;20895;-67
2024/01/29 07:21:15;;;;;;;3.07;2.33;;;;;;;0.54;100.00;146379.66;4974565;28;20313;-67
2024/01/29 07:23:42;;;;;;;6.57;4.37;;;;;;;0.60;100.00;146393.28;4979944;28;20537;-67
2024/01/29 07:26:08;;;;;;;6.40;4.20;;;;;;;0.66;100.00;146406.88;4978383;28;20715;-66
2024/01/29 07:28:35;;;;;;;5.80;2.63;;;;;;;0.68;100.00;146411.81;4980729;28;20236;-66
2024/01/29 07:31:02;;;;;;;6.23;3.20;;;;;;;0.82;100.00;146446.44;4980440;28;20652;-66
2024/01/29 07:33:32;;;;;;;5.33;3.17;;;;;;;0.83;100.00;146447.72;4978078;28;20882;-66
2024/01/29 07:35:59;;;;;;;7.30;2.70;;;;;;;0.81;100.00;146442.75;4980832;28;20593;-66
2024/01/29 07:38:28;;;;;;;5.90;3.00;;;;;;;0.85;100.00;146452.66;4980118;28;20256;-66
2024/01/29 07:40:55;;;;;;;4.47;3.20;;;;;;;0.97;100.00;146482.34;4978723;28;20645;-67
2024/01/29 07:43:21;;;;;;;4.37;2.80;;;;;;;1.03;100.00;146495.94;4974893;28;20242;-66
2024/01/29 07:45:48;;;;;;;4.87;2.80;;;;;;;1.10;100.00;146513.25;4978991;28;20236;-67
2024/01/29 07:48:15;;;;;;;3.93;2.47;;;;;;;1.17;100.00;146529.31;4980695;28;20231;-67
2024/01/29 07:50:43;;;;;;;4.10;2.83;;;;;;;1.19;100.00;146534.25;4977662;28;20228;-66
2024/01/29 07:53:09;;;;;;;3.47;2.60;;;;;;;1.26;100.00;146551.59;4977695;28;20229;-67
2024/01/29 07:55:36;;;;;;;7.10;2.60;;;;;;;1.33;100.00;146568.91;4974968;28;20244;-66
2024/01/29 07:58:03;;;;;;;4.03;2.63;;;;;;;1.40;100.00;146585.03;4980355;28;20232;-66
2024/01/29 08:00:29;;;;;;;3.33;2.30;;;;;;;1.40;100.00;146583.75;4971186;28;20224;-66
2024/01/29 08:02:56;;;;;;;3.83;2.37;;;;;;;1.45;100.00;146597.41;4977370;28;20263;-66
2024/01/29 08:05:23;;;;;;;3.27;2.30;;;;;;;1.50;100.00;146608.50;4975399;28;20230;-66
2024/01/29 08:07:51;;;;;;;6.23;2.83;;;;;;;1.56;100.00;146622.16;4969435;28;20221;-66
2024/01/29 08:10:17;;;;;;;3.73;2.57;;;;;;;1.58;100.00;146627.09;4974255;28;20225;-66
2024/01/29 08:12:44;;;;;;;4.53;2.50;;;;;;;1.65;100.00;146643.16;4974082;28;20241;-66
2024/01/29 08:15:11;;;;;;;8.80;4.47;;;;;;;1.71;100.00;146658.03;4983412;28;20233;-66
2024/01/29 08:17:37;;;;;;;8.23;5.00;;;;;;;1.78;100.00;146675.34;4975466;28;20713;-66
2024/01/29 08:20:04;;;;;;;20.13;10.97;;;;;;;1.82;100.00;146684.00;4977512;28;20236;-66
2024/01/29 08:22:31;;;;;;;9.40;5.40;;;;;;;1.83;100.00;146687.72;4973153;28;20684;-66
2024/01/29 08:24:59;;;;;;;12.43;8.37;;;;;;;1.81;100.00;146681.53;4980763;28;20233;-66
2024/01/29 08:27:27;;;;;;;25.63;14.40;;;;;;;1.84;100.00;146688.94;4974861;28;20231;-66
2024/01/29 08:29:54;;;;;;;9.40;5.53;;;;;;;1.92;100.00;146708.75;4977890;28;20715;-66
2024/01/29 08:32:23;;;;;;;14.77;9.53;;;;;;;1.97;100.00;146719.91;4972459;28;20304;-66
2024/01/29 08:34:50;;;;;;;14.27;8.73;;;;;;;2.04;100.00;146737.25;4978550;28;20236;-66
2024/01/29 08:37:16;;;;;;;12.80;7.20;;;;;;;2.06;100.00;146742.19;4977916;28;20228;-66
2024/01/29 08:39:43;;;;;;;23.93;12.37;;;;;;;2.13;100.00;146759.50;4977526;28;20228;-67
2024/01/29 08:42:11;;;;;;;42.40;20.00;;;;;;;2.19;100.00;146774.34;4977477;28;20576;-67
2024/01/29 08:44:38;;;;;;;44.77;22.93;;;;;;;2.26;100.00;146790.47;4973965;28;20230;-67
2024/01/29 08:47:05;;;;;;;28.97;18.20;;;;;;;2.29;100.00;146796.63;4976583;28;20217;-67
2024/01/29 08:49:31;;;;;;;24.60;14.07;;;;;;;2.34;100.00;146809.03;4973396;28;20226;-66
2024/01/29 08:51:58;;;;;;;30.60;19.93;;;;;;;2.35;100.00;146812.75;4976631;28;20233;-67
2024/01/29 08:54:24;;;;;;;14.07;10.67;;;;;;;2.48;100.00;146843.69;4972802;28;20226;-66
2024/01/29 08:56:51;;;;;;;16.23;9.90;;;;;;;2.54;100.00;146856.09;4976319;28;20237;-66
2024/01/29 08:59:21;;;;;;;15.40;10.43;;;;;;;2.58;100.00;146867.25;4975479;28;20220;-66
2024/01/29 09:01:47;;;;;;;9.53;5.83;;;;;;;2.48;100.00;146842.47;4977110;28;20258;-66
2024/01/29 09:04:14;;;;;;;7.93;4.87;;;;;;;2.62;100.00;146877.16;4970464;28;20223;-66
2024/01/29 09:06:41;;;;;;;9.20;5.57;;;;;;;2.75;100.00;146906.84;4973462;28;20237;-66
2024/01/29 09:09:07;;;;;;;8.87;5.43;;;;;;;2.90;100.00;146944.00;4975785;28;20236;-66
2024/01/29 09:11:34;;;;;;;7.47;4.90;;;;;;;3.01;100.00;146970.06;4971940;28;20253;-66
2024/01/29 09:14:01;;;;;;;7.43;4.97;;;;;;;3.18;100.00;147010.91;4979248;28;20233;-66
2024/01/29 09:16:29;;;;;;;6.47;4.40;;;;;;;3.33;100.00;147046.84;4976349;28;20772;-66
2024/01/29 09:18:55;;;;;;;10.27;6.23;;;;;;;3.49;100.00;147085.28;4975455;28;20236;-67
2024/01/29 09:21:22;;;;;;;13.60;7.53;;;;;;;3.67;100.00;147127.41;4971552;28;20228;-66
2024/01/29 09:23:48;;;;;;;10.17;6.37;;;;;;;3.84;100.00;147169.53;4976655;28;20704;-66
2024/01/29 09:26:15;;;;;;;9.73;4.87;;;;;;;3.96;100.00;147198.06;4973459;28;20229;-66
2024/01/29 09:28:43;;;;;;;7.00;4.60;;;;;;;4.10;100.00;147230.31;4975794;28;20233;-67
2024/01/29 09:31:09;;;;;;;6.37;3.80;;;;;;;4.35;100.00;147291.03;4976563;28;20241;-67
2024/01/29 09:33:37;;;;;;;10.67;3.67;;;;;;;4.64;100.00;147360.50;4972458;28;20235;-67
2024/01/29 09:36:05;;;;;;;8.20;4.43;;;;;;;4.86;100.00;147412.56;4970667;28;20237;-67
2024/01/29 09:38:32;;;;;;;11.80;8.03;;;;;;;5.03;100.00;147453.53;4972412;28;20221;-67
2024/01/29 09:40:59;;;;;;;20.63;10.97;;;;;;;5.16;100.00;147484.53;4971552;28;20237;-67
2024/01/29 09:43:28;;;;;;;10.73;6.30;;;;;;;5.29;100.00;147515.56;4970966;28;20225;-67
2024/01/29 09:45:55;;;;;;;8.97;3.80;;;;;;;5.44;100.00;147552.75;4977381;28;20236;-68
2024/01/29 09:48:23;;;;;;;4.13;2.97;;;;;;;5.67;100.00;147606.16;4976900;28;20244;-67
2024/01/29 09:50:52;;;;;;;12.23;7.47;;;;;;;5.73;100.00;147621.06;4977105;28;20225;-67
2024/01/29 09:53:20;;;;;;;15.63;8.47;;;;;;;5.80;100.00;147638.44;4973304;28;20580;-67
2024/01/29 09:55:47;;;;;;;20.60;11.60;;;;;;;5.71;100.00;147616.09;4981161;28;20821;-67
2024/01/29 09:58:14;;;;;;;17.63;10.37;;;;;;;5.24;100.00;147504.38;4978271;28;20244;-67
2024/01/29 10:00:40;;;;;;;16.83;10.13;;;;;;;5.23;100.00;147500.69;4979171;28;20235;-67
2024/01/29 10:03:14;;;;;;;13.13;9.20;;;;;;;4.97;100.00;147439.84;4980997;28;20233;-67
2024/01/29 10:05:41;;;;;;;17.93;10.47;;;;;;;4.72;100.00;147380.34;4964260;28;20240;-67
2024/01/29 10:08:09;;;;;;;17.33;10.43;;;;;;;4.59;100.00;147348.09;4976705;28;20220;-67
2024/01/29 10:10:35;;;;;;;16.40;9.77;;;;;;;4.47;100.00;147318.34;4978818;28;20235;-67
2024/01/29 10:13:06;;;;;;;14.37;10.23;;;;;;;4.44;100.00;147312.09;4981202;28;20241;-67
2024/01/29 10:15:32;;;;;;;15.50;10.27;;;;;;;4.44;100.00;147312.09;4978498;28;20701;-67
2024/01/29 10:17:59;;;;;;;15.97;11.47;;;;;;;4.41;100.00;147305.94;4981888;28;20225;-67
2024/01/29 10:20:26;;;;;;;17.97;11.70;;;;;;;4.42;100.00;147308.41;4979645;28;20719;-67
2024/01/29 10:22:59;;;;;;;21.17;12.23;;;;;;;4.49;100.00;147323.28;4984830;28;20239;-68
2024/01/29 10:25:27;;;;;;;15.00;10.57;;;;;;;4.60;100.00;147349.31;4975577;28;20676;-67
2024/01/29 10:27:54;;;;;;;15.93;10.40;;;;;;;4.64;100.00;147359.25;4980353;28;20236;-67
2024/01/29 10:30:22;;;;;;;18.50;11.50;;;;;;;4.67;100.00;147366.69;4975648;28;20703;-67
2024/01/29 10:32:48;;;;;;;18.83;11.47;;;;;;;4.76;100.00;147387.78;4977137;28;20855;-67
2024/01/29 10:35:15;;;;;;;18.97;12.60;;;;;;;4.80;100.00;147397.69;4976525;28;20225;-67
2024/01/29 10:37:47;;;;;;;17.67;10.77;;;;;;;4.89;100.00;147420.00;4982607;28;20740;-67
2024/01/29 10:40:15;;;;;;;21.33;12.60;;;;;;;4.96;100.00;147437.38;4974474;28;20237;-67
2024/01/29 10:42:46;;;;;;;17.57;11.60;;;;;;;5.03;100.00;147453.53;4981487;28;20272;-67
2024/01/29 10:45:18;;;;;;;15.67;10.43;;;;;;;5.13;100.00;147478.34;4981571;28;20351;-67
2024/01/29 10:47:48;;;;;;;15.77;10.63;;;;;;;5.22;100.00;147498.22;4978093;28;20225;-67
2024/01/29 10:50:16;;;;;;;33.03;17.47;;;;;;;5.31;100.00;147520.50;4978678;28;20228;-67
2024/01/29 10:52:44;;;;;;;22.00;13.17;;;;;;;5.41;100.00;147545.31;4978241;28;20307;-67
2024/01/29 10:55:12;;;;;;;22.77;12.07;;;;;;;5.51;100.00;147568.94;4983855;28;20213;-67
2024/01/29 10:57:41;;;;;;;15.57;10.47;;;;;;;5.65;100.00;147602.41;4974370;28;20233;-67
2024/01/29 11:00:11;;;;;;;16.33;10.33;;;;;;;5.71;100.00;147617.31;4978243;28;20225;-67
2024/01/29 11:02:39;;;;;;;21.33;15.83;;;;;;;5.76;100.00;147628.50;4973124;28;20240;-67
2024/01/29 11:05:06;;;;;;;19.27;12.73;;;;;;;5.90;100.00;147662.00;4979641;28;20221;-67
2024/01/29 11:07:34;;;;;;;16.20;11.30;;;;;;;6.02;100.00;147691.84;4973968;28;20213;-67
2024/01/29 11:10:06;;;;;;;17.87;10.53;;;;;;;6.08;100.00;147705.50;4981727;28;20221;-67
2024/01/29 11:12:34;;;;;;;16.20;10.80;;;;;;;6.21;100.00;147736.56;4972643;28;33274;-67
2024/01/29 11:15:04;;;;;;;31.67;18.77;;;;;;;6.31;100.00;147760.13;4978207;28;20247;-67
2024/01/29 11:17:32;;;;;;;26.70;18.33;;;;;;;6.46;100.00;147796.13;4977310;28;20229;-67
2024/01/29 11:20:00;;;;;;;20.00;13.37;;;;;;;6.62;100.00;147835.88;4976724;28;20241;-67
2024/01/29 11:22:35;;;;;;;25.43;17.80;;;;;;;6.72;99.92;147858.22;4977190;28;20250;-67